Time;durP1;ratioP1;P1;durP2;ratioP2;P2;SDS_P1;SDS_P2;PMS_P1;PMS_P2;Temp;Humidity;BMP_temperature;BMP_pressure;BME280_temperature;BME280_humidity;BME280_pressure;Samples;Min_cycle;Max_cycle;Signal;HPM_P1;HPM_P2
2022/02/19 00:00:16;;;;;;;49.60;25.83;;;7.00;99.90;;;;;;4964023;28;20031;-74
2022/02/19 00:02:41;;;;;;;42.75;25.73;;;7.10;99.90;;;;;;4963117;28;20047;-75
2022/02/19 00:05:08;;;;;;;42.20;23.98;;;7.00;99.90;;;;;;4949022;28;20034;-75
2022/02/19 00:07:34;;;;;;;41.25;25.20;;;6.90;99.90;;;;;;4970492;28;20015;-74
2022/02/19 00:10:00;;;;;;;45.63;26.02;;;6.80;99.90;;;;;;4987237;28;20042;-74
2022/02/19 00:12:26;;;;;;;48.17;26.58;;;6.90;99.90;;;;;;4971971;28;20034;-74
2022/02/19 00:14:52;;;;;;;47.63;26.05;;;6.90;99.90;;;;;;4972297;28;20030;-74
2022/02/19 00:17:20;;;;;;;50.60;26.60;;;7.00;99.90;;;;;;4972306;28;20026;-74
2022/02/19 00:19:46;;;;;;;43.17;26.60;;;7.00;99.90;;;;;;4972386;28;20438;-74
2022/02/19 00:22:11;;;;;;;48.13;27.67;;;6.90;99.90;;;;;;4972400;28;20093;-74
2022/02/19 00:24:37;;;;;;;49.13;27.75;;;6.80;99.90;;;;;;4972534;28;20477;-74
2022/02/19 00:27:03;;;;;;;51.90;28.08;;;7.00;99.90;;;;;;4972233;28;20027;-74
2022/02/19 00:29:29;;;;;;;46.10;27.48;;;7.00;99.90;;;;;;4986967;28;20070;-74
2022/02/19 00:31:54;;;;;;;48.03;28.08;;;7.00;99.90;;;;;;4972751;28;20042;-74
2022/02/19 00:34:20;;;;;;;54.17;30.95;;;7.00;99.90;;;;;;4976181;28;20031;-74
2022/02/19 00:36:45;;;;;;;48.33;27.20;;;6.90;99.90;;;;;;4976037;28;20498;-74
2022/02/19 00:39:12;;;;;;;50.70;28.83;;;6.90;99.90;;;;;;4975440;28;20035;-74
2022/02/19 00:41:38;;;;;;;55.70;28.73;;;6.90;99.90;;;;;;4975207;28;20089;-74
2022/02/19 00:44:07;;;;;;;49.45;27.23;;;6.90;99.90;;;;;;4974933;28;20030;-74
2022/02/19 00:46:34;;;;;;;47.17;27.52;;;6.80;99.90;;;;;;4975859;28;20492;-74
2022/02/19 00:49:01;;;;;;;53.58;29.08;;;6.80;99.90;;;;;;4975671;28;20062;-74
2022/02/19 00:51:29;;;;;;;50.45;28.67;;;6.80;99.90;;;;;;4975429;28;20475;-74
2022/02/19 00:53:55;;;;;;;45.10;27.40;;;6.80;99.90;;;;;;4975552;28;20041;-73
2022/02/19 00:56:21;;;;;;;41.75;24.13;;;6.90;99.90;;;;;;4975611;28;20497;-74
2022/02/19 00:58:47;;;;;;;47.65;26.98;;;6.90;99.90;;;;;;4975254;28;20027;-74
2022/02/19 01:01:13;;;;;;;50.03;27.13;;;6.90;99.90;;;;;;4975195;28;20050;-74
2022/02/19 01:03:38;;;;;;;47.00;28.42;;;7.00;99.90;;;;;;4975292;28;20122;-74
2022/02/19 01:06:04;;;;;;;47.00;28.65;;;7.00;99.90;;;;;;4975308;28;20039;-74
2022/02/19 01:08:29;;;;;;;54.50;29.20;;;7.00;99.90;;;;;;4974896;28;20415;-74
2022/02/19 01:10:55;;;;;;;46.88;28.50;;;7.10;99.90;;;;;;4975006;28;20042;-74
2022/02/19 01:13:22;;;;;;;52.20;29.40;;;7.00;99.90;;;;;;4975159;28;20018;-74
2022/02/19 01:15:49;;;;;;;49.38;30.20;;;6.90;99.90;;;;;;4975123;28;20117;-74
2022/02/19 01:18:14;;;;;;;47.35;27.40;;;6.90;99.90;;;;;;4974666;28;20425;-74
2022/02/19 01:20:42;;;;;;;52.70;29.88;;;6.80;99.90;;;;;;4974350;28;20064;-74
2022/02/19 01:23:09;;;;;;;47.25;28.85;;;6.80;99.90;;;;;;4974058;28;20034;-74
2022/02/19 01:25:35;;;;;;;51.35;31.02;;;6.80;99.90;;;;;;4974276;28;20035;-74
2022/02/19 01:28:01;;;;;;;54.67;32.20;;;6.80;99.90;;;;;;4974412;28;20106;-74
2022/02/19 01:30:27;;;;;;;54.95;31.88;;;6.70;99.90;;;;;;4974077;28;20034;-74
2022/02/19 01:32:53;;;;;;;53.25;31.92;;;6.80;99.90;;;;;;4974046;28;20037;-75
2022/02/19 01:35:18;;;;;;;60.45;34.15;;;6.90;99.90;;;;;;4974219;28;20046;-74
2022/02/19 01:37:44;;;;;;;57.35;32.90;;;7.00;99.90;;;;;;4974162;28;20022;-74
2022/02/19 01:40:11;;;;;;;54.80;29.52;;;7.00;99.90;;;;;;4973835;28;20497;-74
2022/02/19 01:42:36;;;;;;;52.28;30.10;;;6.90;99.90;;;;;;4973905;28;20023;-74
2022/02/19 01:45:02;;;;;;;50.85;29.75;;;6.80;99.90;;;;;;4972978;28;20035;-74
2022/02/19 01:47:28;;;;;;;46.55;27.75;;;6.80;99.90;;;;;;4973647;28;20027;-74
2022/02/19 01:49:54;;;;;;;53.40;31.10;;;6.80;99.90;;;;;;4973620;28;20593;-74
2022/02/19 01:52:20;;;;;;;56.08;30.65;;;6.90;99.90;;;;;;4973579;28;20141;-74
2022/02/19 01:54:47;;;;;;;50.15;30.25;;;6.90;99.90;;;;;;4973726;28;20034;-74
2022/02/19 01:57:12;;;;;;;50.45;26.75;;;7.00;99.90;;;;;;4973581;28;20093;-74
2022/02/19 01:59:41;;;;;;;45.53;27.55;;;6.90;99.90;;;;;;4973851;28;20027;-74
2022/02/19 02:02:06;;;;;;;49.22;29.35;;;6.90;99.90;;;;;;4973524;28;20049;-74
2022/02/19 02:04:33;;;;;;;47.20;27.50;;;6.90;99.90;;;;;;4973713;28;20031;-74
2022/02/19 02:07:01;;;;;;;51.20;31.00;;;6.90;99.90;;;;;;4973736;28;20038;-74
2022/02/19 02:09:27;;;;;;;65.47;38.63;;;7.00;99.90;;;;;;4973419;28;20058;-74
2022/02/19 02:11:53;;;;;;;64.97;36.80;;;7.00;99.90;;;;;;4973249;28;20035;-74
2022/02/19 02:14:19;;;;;;;59.08;33.83;;;7.00;99.90;;;;;;4973415;28;20031;-74
2022/02/19 02:16:45;;;;;;;47.10;27.25;;;7.00;99.90;;;;;;4973368;28;20031;-74
2022/02/19 02:19:11;;;;;;;48.08;27.48;;;6.90;99.90;;;;;;4973224;28;20035;-74
2022/02/19 02:21:38;;;;;;;49.97;28.63;;;6.80;99.90;;;;;;4973193;28;20484;-74
2022/02/19 02:24:05;;;;;;;45.95;28.55;;;6.80;99.90;;;;;;4973229;28;20106;-74
2022/02/19 02:26:31;;;;;;;46.70;27.67;;;6.80;99.90;;;;;;4973254;28;20357;-74
2022/02/19 02:28:57;;;;;;;51.63;28.02;;;6.90;99.90;;;;;;4988122;28;20041;-74
2022/02/19 02:31:23;;;;;;;47.25;27.17;;;6.90;99.90;;;;;;4973069;28;20062;-74
2022/02/19 02:33:49;;;;;;;46.88;27.85;;;6.90;99.90;;;;;;4972826;28;20040;-74
2022/02/19 02:36:16;;;;;;;44.42;26.60;;;6.90;99.90;;;;;;4972448;28;20457;-74
2022/02/19 02:38:42;;;;;;;53.17;32.42;;;6.90;99.90;;;;;;4972744;28;20081;-74
2022/02/19 02:41:08;;;;;;;61.42;31.98;;;7.10;99.90;;;;;;4972508;28;20456;-74
2022/02/19 02:43:34;;;;;;;49.30;28.30;;;7.10;99.90;;;;;;4972591;28;20035;-74
2022/02/19 02:45:59;;;;;;;41.25;24.52;;;6.90;99.90;;;;;;4973021;28;20045;-74
2022/02/19 02:48:25;;;;;;;50.05;28.85;;;7.00;99.90;;;;;;4972463;28;20492;-74
2022/02/19 02:50:53;;;;;;;49.03;27.92;;;7.00;99.90;;;;;;4972493;28;20124;-74
2022/02/19 02:53:18;;;;;;;48.95;27.27;;;7.10;99.90;;;;;;4972445;28;20030;-74
2022/02/19 02:55:44;;;;;;;43.20;24.48;;;6.90;99.90;;;;;;4971448;28;20524;-74
2022/02/19 02:58:10;;;;;;;49.83;27.77;;;6.80;99.90;;;;;;4972916;28;20026;-74
2022/02/19 03:00:36;;;;;;;48.97;27.73;;;6.90;99.90;;;;;;4972729;28;20074;-74
2022/02/19 03:03:01;;;;;;;51.03;29.95;;;6.80;99.90;;;;;;4972525;28;20405;-74
2022/02/19 03:05:27;;;;;;;65.13;36.30;;;6.90;99.90;;;;;;4972446;28;20026;-74
2022/02/19 03:07:53;;;;;;;67.00;39.92;;;6.90;99.90;;;;;;4972320;28;20081;-74
2022/02/19 03:10:19;;;;;;;65.35;37.65;;;7.00;99.90;;;;;;4972716;28;20027;-74
2022/02/19 03:12:47;;;;;;;72.78;41.65;;;6.90;99.90;;;;;;4972699;28;20397;-74
2022/02/19 03:15:18;;;;;;;60.33;36.35;;;6.90;99.90;;;;;;4972540;28;20038;-74
2022/02/19 03:17:45;;;;;;;58.60;33.60;;;6.90;99.90;;;;;;4972303;28;20023;-74
2022/02/19 03:20:20;;;;;;;48.95;31.00;;;7.00;99.90;;;;;;4972397;28;20050;-74
2022/02/19 03:22:46;;;;;;;51.50;28.58;;;7.00;99.90;;;;;;4972468;28;20035;-74
2022/02/19 03:25:14;;;;;;;50.35;28.67;;;6.90;99.90;;;;;;4972049;28;20028;-74
2022/02/19 03:27:41;;;;;;;51.10;30.92;;;6.90;99.90;;;;;;4972488;28;20058;-74
2022/02/19 03:30:08;;;;;;;44.65;26.83;;;7.00;99.90;;;;;;4972005;28;20566;-74
2022/02/19 03:32:34;;;;;;;52.30;28.70;;;7.00;99.90;;;;;;4972310;28;20489;-75
2022/02/19 03:35:00;;;;;;;49.10;27.73;;;6.90;99.90;;;;;;4972405;28;20049;-74
2022/02/19 03:37:26;;;;;;;47.25;29.17;;;6.90;99.90;;;;;;4972340;28;20043;-74
2022/02/19 03:39:52;;;;;;;52.90;29.38;;;7.00;99.90;;;;;;4971941;28;20058;-74
2022/02/19 03:42:18;;;;;;;55.92;31.38;;;7.00;99.90;;;;;;4972380;28;20023;-74
2022/02/19 03:44:44;;;;;;;60.35;35.13;;;7.10;99.90;;;;;;4972473;28;20022;-74
2022/02/19 03:47:10;;;;;;;62.03;35.97;;;7.00;99.90;;;;;;4972349;28;20030;-74
2022/02/19 03:49:35;;;;;;;63.13;39.30;;;6.90;99.90;;;;;;4972183;28;20023;-75
2022/02/19 03:52:01;;;;;;;64.88;36.75;;;6.70;99.90;;;;;;4972408;28;20516;-74
2022/02/19 03:54:27;;;;;;;51.78;30.27;;;6.80;99.90;;;;;;4972377;28;20035;-74
2022/02/19 03:56:53;;;;;;;55.38;32.80;;;6.80;99.90;;;;;;4972330;28;20117;-74
2022/02/19 03:59:19;;;;;;;55.97;33.42;;;6.80;99.90;;;;;;4972074;28;20106;-74
2022/02/19 04:01:44;;;;;;;66.78;35.33;;;6.80;99.90;;;;;;4971781;28;20442;-73
2022/02/19 04:04:11;;;;;;;62.08;35.55;;;6.80;99.90;;;;;;4951302;28;20050;-73
2022/02/19 04:06:37;;;;;;;54.70;32.35;;;6.80;99.90;;;;;;4945823;28;20106;-74
2022/02/19 04:09:04;;;;;;;60.08;36.47;;;6.80;99.90;;;;;;4949465;29;20031;-74
2022/02/19 04:11:30;;;;;;;66.13;37.78;;;6.90;99.90;;;;;;4949749;29;20027;-74
2022/02/19 04:13:55;;;;;;;67.45;39.42;;;6.90;99.90;;;;;;4949556;28;20133;-74
2022/02/19 04:16:21;;;;;;;57.75;34.70;;;6.90;99.90;;;;;;4950038;29;20133;-73
2022/02/19 04:18:47;;;;;;;50.78;30.75;;;6.90;99.90;;;;;;4948769;29;20034;-73
2022/02/19 04:21:13;;;;;;;55.53;30.77;;;6.90;99.90;;;;;;4949039;29;20019;-73
2022/02/19 04:23:38;;;;;;;51.63;28.75;;;6.80;99.90;;;;;;4951033;28;20034;-74
2022/02/19 04:26:04;;;;;;;61.33;32.72;;;6.80;99.90;;;;;;4951981;29;20031;-74
2022/02/19 04:28:30;;;;;;;57.05;33.30;;;6.80;99.90;;;;;;4952041;29;20023;-73
2022/02/19 04:30:56;;;;;;;62.22;37.05;;;6.80;99.90;;;;;;4951589;28;20523;-73
2022/02/19 04:33:21;;;;;;;70.80;41.08;;;6.80;99.90;;;;;;4951858;28;20035;-74
2022/02/19 04:35:47;;;;;;;51.25;30.77;;;6.80;99.90;;;;;;4952096;28;20023;-74
2022/02/19 04:38:14;;;;;;;55.30;32.50;;;6.70;99.90;;;;;;4952163;29;20074;-73
2022/02/19 04:40:42;;;;;;;57.05;33.42;;;6.80;99.90;;;;;;4951603;28;20047;-73
2022/02/19 04:43:08;;;;;;;62.13;34.65;;;6.90;99.90;;;;;;4951478;28;20122;-73
2022/02/19 04:45:34;;;;;;;60.78;37.25;;;6.90;99.90;;;;;;4951717;29;20110;-73
2022/02/19 04:47:59;;;;;;;68.05;37.83;;;6.80;99.90;;;;;;4950091;29;20114;-73
2022/02/19 04:50:25;;;;;;;52.53;31.48;;;6.80;99.90;;;;;;4949151;29;20027;-73
2022/02/19 04:52:51;;;;;;;63.10;35.33;;;6.80;99.90;;;;;;4949891;28;20031;-73
2022/02/19 04:55:16;;;;;;;65.30;38.67;;;6.80;99.90;;;;;;4951352;28;20034;-73
2022/02/19 04:57:45;;;;;;;66.82;38.95;;;6.70;99.90;;;;;;4950540;29;20062;-73
2022/02/19 05:00:16;;;;;;;71.75;39.13;;;6.70;99.90;;;;;;4948504;28;20097;-74
2022/02/19 05:02:42;;;;;;;68.13;40.30;;;6.70;99.90;;;;;;4948257;29;20027;-73
2022/02/19 05:05:08;;;;;;;54.67;32.75;;;6.70;99.90;;;;;;4948627;28;20470;-73
2022/02/19 05:07:34;;;;;;;61.25;34.38;;;6.70;99.90;;;;;;4948627;29;20031;-74
2022/02/19 05:10:01;;;;;;;61.75;34.53;;;6.70;99.90;;;;;;4948539;29;20031;-73
2022/02/19 05:12:27;;;;;;;60.75;33.05;;;6.80;99.90;;;;;;4948239;28;20031;-74
2022/02/19 05:14:52;;;;;;;55.13;33.47;;;7.00;99.90;;;;;;4948775;28;20841;-74
2022/02/19 05:17:18;;;;;;;60.20;34.55;;;7.10;99.90;;;;;;4948292;28;20074;-73
2022/02/19 05:19:44;;;;;;;62.60;35.85;;;7.10;99.90;;;;;;4947229;28;20058;-73
2022/02/19 05:22:09;;;;;;;55.13;33.00;;;7.10;99.90;;;;;;4948430;28;20055;-73
2022/02/19 05:24:35;;;;;;;56.65;34.05;;;7.00;99.90;;;;;;4948336;28;20078;-73
2022/02/19 05:27:01;;;;;;;57.53;31.95;;;7.00;99.90;;;;;;4948040;28;20035;-74
2022/02/19 05:29:27;;;;;;;55.25;31.63;;;7.00;99.90;;;;;;4947970;28;20066;-74
2022/02/19 05:31:52;;;;;;;55.35;29.75;;;7.00;99.90;;;;;;4947825;28;20031;-74
2022/02/19 05:34:18;;;;;;;53.08;30.58;;;6.90;99.90;;;;;;4947648;28;20035;-73
2022/02/19 05:36:44;;;;;;;52.47;29.92;;;6.90;99.90;;;;;;4947639;28;20038;-73
2022/02/19 05:39:09;;;;;;;56.65;33.15;;;6.90;99.90;;;;;;4947599;28;20539;-74
2022/02/19 05:41:36;;;;;;;59.17;32.30;;;6.90;99.90;;;;;;4947911;28;20023;-74
2022/02/19 05:44:04;;;;;;;58.45;34.55;;;6.90;99.90;;;;;;4947808;28;20034;-73
2022/02/19 05:46:31;;;;;;;63.25;33.33;;;7.00;99.90;;;;;;4947701;28;20027;-73
2022/02/19 05:48:57;;;;;;;55.83;31.50;;;7.00;99.90;;;;;;4947031;28;20685;-74
2022/02/19 05:51:23;;;;;;;57.30;32.13;;;6.90;99.90;;;;;;4946136;28;20508;-74
2022/02/19 05:53:48;;;;;;;55.58;32.45;;;7.00;99.90;;;;;;4947477;28;20036;-74
2022/02/19 05:56:14;;;;;;;59.35;31.58;;;6.90;99.90;;;;;;4947619;28;20038;-73
2022/02/19 05:58:40;;;;;;;60.58;31.58;;;6.90;99.90;;;;;;4947122;28;20141;-74
2022/02/19 06:01:05;;;;;;;57.10;32.58;;;6.80;99.90;;;;;;4947183;28;20030;-73
2022/02/19 06:03:31;;;;;;;66.38;36.47;;;6.80;99.90;;;;;;4947305;28;20034;-74
2022/02/19 06:05:57;;;;;;;65.03;36.28;;;6.70;99.90;;;;;;4947301;28;20031;-74
2022/02/19 06:08:22;;;;;;;56.90;31.65;;;6.70;99.90;;;;;;4947382;28;20551;-73
2022/02/19 06:10:48;;;;;;;59.00;30.88;;;6.70;99.90;;;;;;4947191;28;20040;-73
2022/02/19 06:13:13;;;;;;;60.20;33.22;;;6.80;99.90;;;;;;4947369;29;20393;-73
2022/02/19 06:15:39;;;;;;;52.30;31.42;;;6.80;99.90;;;;;;4947151;28;20023;-74
2022/02/19 06:18:05;;;;;;;62.08;35.60;;;6.90;99.90;;;;;;4947042;28;20109;-74
2022/02/19 06:20:30;;;;;;;64.55;36.92;;;6.80;99.90;;;;;;4947689;28;20034;-73
2022/02/19 06:22:56;;;;;;;65.13;36.38;;;6.70;99.90;;;;;;4947220;29;20019;-74
2022/02/19 06:25:22;;;;;;;64.55;34.08;;;6.60;99.90;;;;;;4946869;28;20024;-74
2022/02/19 06:27:47;;;;;;;56.92;33.17;;;6.60;99.90;;;;;;4947040;28;20129;-73
2022/02/19 06:30:16;;;;;;;54.05;30.98;;;6.60;99.90;;;;;;4946471;28;20035;-74
2022/02/19 06:32:42;;;;;;;60.50;32.65;;;6.70;99.90;;;;;;4946589;29;20076;-74
2022/02/19 06:35:09;;;;;;;51.97;29.65;;;6.70;99.90;;;;;;4946806;28;20027;-74
2022/02/19 06:37:43;;;;;;;56.30;32.40;;;6.80;99.90;;;;;;4946323;28;20090;-74
2022/02/19 06:40:11;;;;;;;47.72;30.02;;;6.90;99.90;;;;;;4947630;28;20588;-73
2022/02/19 06:42:38;;;;;;;53.05;30.17;;;6.80;99.90;;;;;;4949310;28;20027;-73
2022/02/19 06:45:04;;;;;;;50.85;30.05;;;6.90;99.90;;;;;;4949850;28;20430;-73
2022/02/19 06:47:31;;;;;;;50.85;28.77;;;6.90;99.90;;;;;;4949684;28;20038;-73
2022/02/19 06:49:57;;;;;;;47.17;30.50;;;6.80;99.90;;;;;;4949227;29;20082;-73
2022/02/19 06:52:22;;;;;;;53.28;30.83;;;6.90;99.90;;;;;;4949428;28;20039;-73
2022/02/19 06:54:48;;;;;;;52.72;31.15;;;7.00;99.90;;;;;;4949425;28;20062;-73
2022/02/19 06:57:15;;;;;;;52.88;32.47;;;7.10;99.90;;;;;;4949330;28;20028;-73
2022/02/19 06:59:42;;;;;;;58.33;36.47;;;7.20;99.90;;;;;;4949503;29;20023;-74
2022/02/19 07:02:07;;;;;;;56.53;32.15;;;7.20;99.90;;;;;;4949265;29;20031;-74
2022/02/19 07:04:33;;;;;;;53.63;32.40;;;7.30;99.90;;;;;;4949214;28;20401;-75
2022/02/19 07:06:59;;;;;;;65.10;35.58;;;7.30;99.90;;;;;;4948954;28;20032;-73
2022/02/19 07:09:25;;;;;;;63.78;34.80;;;7.30;99.90;;;;;;4948872;28;20031;-73
2022/02/19 07:11:54;;;;;;;63.33;38.47;;;7.30;99.90;;;;;;4949026;28;20043;-73
2022/02/19 07:14:20;;;;;;;61.10;36.85;;;7.40;99.90;;;;;;4949031;29;20032;-73
2022/02/19 07:16:46;;;;;;;71.32;35.38;;;7.40;99.90;;;;;;4949230;28;20035;-73
2022/02/19 07:19:11;;;;;;;59.10;34.85;;;7.40;99.90;;;;;;4957089;28;20031;-73
2022/02/19 07:21:37;;;;;;;56.78;32.40;;;7.40;99.90;;;;;;4967829;28;20117;-73
2022/02/19 07:24:04;;;;;;;52.83;30.77;;;7.40;99.90;;;;;;4968306;28;20375;-73
2022/02/19 07:26:29;;;;;;;49.72;29.20;;;7.30;99.90;;;;;;4968507;28;20054;-73
2022/02/19 07:28:55;;;;;;;39.28;25.70;;;7.20;99.90;;;;;;4968356;28;20054;-73
2022/02/19 07:31:21;;;;;;;49.60;25.58;;;7.10;99.90;;;;;;4967871;28;20077;-73
2022/02/19 07:33:46;;;;;;;46.30;27.40;;;7.00;99.90;;;;;;4968009;28;20537;-74
2022/02/19 07:36:12;;;;;;;46.00;29.77;;;7.00;99.90;;;;;;4967830;28;20046;-73
2022/02/19 07:38:38;;;;;;;44.03;27.05;;;7.20;99.90;;;;;;4968452;28;20059;-74
2022/02/19 07:41:03;;;;;;;55.72;33.65;;;7.20;99.90;;;;;;4967977;28;20134;-74
2022/02/19 07:43:29;;;;;;;49.70;28.75;;;7.00;99.90;;;;;;4971491;28;20464;-73
2022/02/19 07:45:55;;;;;;;49.60;28.40;;;7.10;99.90;;;;;;4972058;28;20034;-73
2022/02/19 07:48:20;;;;;;;45.17;27.00;;;7.10;99.90;;;;;;4972082;28;20019;-73
2022/02/19 07:58:58;;;;;;;50.67;27.60;;;7.40;99.90;;;;;;4972270;28;20049;-74
2022/02/19 08:01:24;;;;;;;45.95;28.48;;;7.50;99.90;;;;;;4972016;28;20369;-73
2022/02/19 08:03:50;;;;;;;40.22;24.70;;;7.50;99.90;;;;;;4970182;28;20097;-73
2022/02/19 08:06:15;;;;;;;44.92;26.20;;;7.50;99.90;;;;;;4968666;28;20037;-73
2022/02/19 08:08:41;;;;;;;42.90;25.58;;;7.50;99.90;;;;;;4970210;28;20035;-73
2022/02/19 08:11:07;;;;;;;48.67;26.48;;;7.50;99.90;;;;;;4970502;28;20031;-75
2022/02/19 08:13:32;;;;;;;54.50;32.55;;;7.50;99.90;;;;;;4971962;28;20058;-74
2022/02/19 08:15:58;;;;;;;58.50;32.05;;;7.40;99.90;;;;;;4971875;28;20031;-74
2022/02/19 08:18:24;;;;;;;57.47;33.90;;;7.30;99.90;;;;;;4972135;28;20654;-74
2022/02/19 08:20:52;;;;;;;54.85;33.67;;;7.30;99.90;;;;;;4971338;28;20030;-74
2022/02/19 08:23:19;;;;;;;57.00;35.25;;;7.20;99.90;;;;;;4971984;28;20035;-74
2022/02/19 08:25:46;;;;;;;60.10;35.70;;;7.00;99.90;;;;;;4971772;28;20037;-74
2022/02/19 08:28:11;;;;;;;60.70;34.83;;;6.90;99.90;;;;;;4971544;28;20492;-74
2022/02/19 08:30:39;;;;;;;52.30;30.17;;;6.90;99.90;;;;;;4971612;28;20038;-74
2022/02/19 08:33:06;;;;;;;58.30;30.85;;;7.00;99.90;;;;;;4971593;28;20034;-74
2022/02/19 08:35:33;;;;;;;58.35;33.97;;;7.10;99.90;;;;;;4971491;28;20027;-74
2022/02/19 08:37:59;;;;;;;58.65;34.63;;;7.00;99.90;;;;;;4971545;28;20046;-74
2022/02/19 08:40:24;;;;;;;60.70;35.55;;;6.90;99.90;;;;;;4970808;28;20058;-74
2022/02/19 08:42:50;;;;;;;60.38;34.72;;;6.80;99.90;;;;;;4970795;28;20085;-74
2022/02/19 08:45:17;;;;;;;63.35;36.40;;;6.90;99.90;;;;;;4986160;28;20053;-73
2022/02/19 08:47:43;;;;;;;56.42;33.90;;;6.90;99.90;;;;;;4971020;28;20546;-75
2022/02/19 08:50:14;;;;;;;56.15;34.58;;;6.90;99.90;;;;;;4970345;28;20115;-74
2022/02/19 08:52:40;;;;;;;56.78;35.28;;;6.90;99.90;;;;;;4970738;28;20101;-74
2022/02/19 08:55:07;;;;;;;61.78;36.42;;;6.80;99.90;;;;;;4971088;28;20038;-74
2022/02/19 08:57:33;;;;;;;58.90;35.40;;;6.80;99.90;;;;;;4970837;28;20037;-74
2022/02/19 08:59:58;;;;;;;62.47;34.75;;;6.80;99.90;;;;;;4970573;28;20106;-74
2022/02/19 09:02:25;;;;;;;60.03;34.83;;;6.90;99.90;;;;;;4970748;28;20093;-73
2022/02/19 09:04:51;;;;;;;58.22;33.90;;;7.00;99.90;;;;;;4971147;28;20035;-74
2022/02/19 09:07:17;;;;;;;59.63;35.90;;;7.00;99.90;;;;;;4970927;28;20027;-74
2022/02/19 09:09:44;;;;;;;56.10;34.38;;;7.00;99.90;;;;;;4970551;28;20031;-74
2022/02/19 09:12:10;;;;;;;54.78;33.72;;;7.10;99.90;;;;;;4970607;28;20042;-75
2022/02/19 09:14:36;;;;;;;54.65;32.10;;;7.10;99.90;;;;;;4970630;28;20132;-74
2022/02/19 09:17:02;;;;;;;55.13;31.33;;;7.10;99.90;;;;;;4970702;28;20039;-74
2022/02/19 09:19:28;;;;;;;46.45;28.10;;;7.10;99.90;;;;;;4970978;28;20480;-74
2022/02/19 09:21:54;;;;;;;47.72;28.48;;;7.20;99.90;;;;;;4970897;28;20073;-73
2022/02/19 09:24:20;;;;;;;49.05;27.90;;;7.20;99.90;;;;;;4970665;28;20038;-73
2022/02/19 09:26:46;;;;;;;44.70;27.05;;;7.30;99.90;;;;;;4969744;28;20393;-73
2022/02/19 09:29:11;;;;;;;48.50;28.58;;;7.30;99.90;;;;;;4970095;28;20417;-74
2022/02/19 09:31:38;;;;;;;39.63;24.92;;;7.30;99.90;;;;;;4965607;28;20072;-73
2022/02/19 09:34:04;;;;;;;47.13;29.13;;;7.30;99.90;;;;;;4962284;28;20458;-74
2022/02/19 09:36:30;;;;;;;49.60;27.48;;;7.40;99.90;;;;;;4965682;28;20044;-74
2022/02/19 09:38:56;;;;;;;50.85;29.48;;;7.40;99.90;;;;;;4969884;28;20426;-74
2022/02/19 09:41:22;;;;;;;54.72;33.92;;;7.40;99.90;;;;;;4969705;28;20030;-74
2022/02/19 09:43:47;;;;;;;54.35;32.05;;;7.30;99.90;;;;;;4968838;28;20126;-73
2022/02/19 09:46:15;;;;;;;56.72;31.92;;;7.30;99.90;;;;;;4965257;28;20500;-75
2022/02/19 09:48:45;;;;;;;52.85;33.28;;;7.30;99.90;;;;;;4978914;28;20389;-76
2022/02/19 09:51:11;;;;;;;48.70;29.73;;;7.40;99.90;;;;;;4971093;28;20042;-74
2022/02/19 09:53:39;;;;;;;45.65;27.17;;;7.40;99.90;;;;;;4969874;28;20037;-74
2022/02/19 09:56:05;;;;;;;43.35;26.52;;;7.40;99.90;;;;;;4968342;28;20050;-74
2022/02/19 09:58:33;;;;;;;43.13;26.45;;;7.30;99.90;;;;;;4969645;28;20038;-72
2022/02/19 10:01:18;;;;;;;48.67;30.67;;;7.40;99.90;;;;;;4969785;28;20030;-73
2022/02/19 10:03:45;;;;;;;42.80;24.98;;;7.40;99.90;;;;;;4968950;28;20027;-74
2022/02/19 10:06:14;;;;;;;42.10;26.65;;;7.50;99.90;;;;;;4968982;28;20105;-73
2022/02/19 10:08:40;;;;;;;51.88;30.98;;;7.50;99.90;;;;;;4967193;28;20193;-74
2022/02/19 10:11:11;;;;;;;47.72;29.85;;;7.50;99.90;;;;;;4969715;28;20505;-75
2022/02/19 10:13:38;;;;;;;46.95;29.52;;;7.50;99.90;;;;;;4968353;28;20162;-76
2022/02/19 10:16:05;;;;;;;48.15;28.42;;;7.70;99.90;;;;;;4966049;28;20039;-75
2022/02/19 10:18:36;;;;;;;42.00;25.23;;;7.70;99.90;;;;;;4963393;28;20027;-75
2022/02/19 10:21:14;;;;;;;48.08;27.70;;;7.70;99.90;;;;;;4947846;28;20370;-75
2022/02/19 10:23:43;;;;;;;52.25;30.92;;;7.70;99.90;;;;;;4950638;28;20124;-75
2022/02/19 10:26:09;;;;;;;46.47;29.55;;;7.60;99.90;;;;;;4966232;28;20034;-76
2022/02/19 10:28:35;;;;;;;47.58;29.00;;;7.70;99.90;;;;;;4966513;28;20034;-76
2022/02/19 10:31:15;;;;;;;45.38;28.55;;;7.70;99.90;;;;;;4966227;28;20046;-76
2022/02/19 10:33:42;;;;;;;56.70;30.15;;;7.80;99.90;;;;;;4981041;28;20397;-75
2022/02/19 10:36:19;;;;;;;48.95;29.55;;;7.80;99.90;;;;;;4965954;28;20065;-74
2022/02/19 10:38:58;;;;;;;45.85;26.48;;;7.80;99.90;;;;;;4964623;28;20110;-75
2022/02/19 10:41:38;;;;;;;48.80;29.55;;;7.80;99.90;;;;;;4963585;28;20518;-75
2022/02/19 10:44:19;;;;;;;43.45;26.15;;;7.80;99.90;;;;;;4964378;28;20090;-76
2022/02/19 10:46:45;;;;;;;43.15;27.70;;;7.80;99.90;;;;;;4965138;28;20074;-75
2022/02/19 10:49:13;;;;;;;38.63;26.52;;;7.90;99.90;;;;;;4965171;28;20030;-75
2022/02/19 10:51:43;;;;;;;45.58;25.27;;;7.90;99.90;;;;;;4965413;28;20386;-76
2022/02/19 10:54:10;;;;;;;49.03;28.58;;;7.90;99.90;;;;;;4965862;28;20053;-75
2022/02/19 10:56:37;;;;;;;42.78;25.38;;;8.00;99.90;;;;;;4965036;28;20037;-75
2022/02/19 10:59:09;;;;;;;40.53;26.27;;;8.00;99.90;;;;;;4964421;28;20125;-75
2022/02/19 11:01:46;;;;;;;47.75;25.88;;;8.00;99.90;;;;;;4957395;28;20593;-75
2022/02/19 11:04:14;;;;;;;48.08;27.92;;;8.00;99.90;;;;;;4964900;28;20446;-75
2022/02/19 11:06:40;;;;;;;50.42;28.30;;;8.00;99.90;;;;;;4965322;28;20520;-75
2022/02/19 11:09:08;;;;;;;48.15;29.23;;;7.90;99.90;;;;;;4965146;28;20050;-76
2022/02/19 11:11:35;;;;;;;52.65;31.33;;;7.90;99.90;;;;;;4963529;28;20042;-75
2022/02/19 11:14:05;;;;;;;52.97;31.67;;;7.90;99.90;;;;;;4965175;28;20120;-75
2022/02/19 11:16:32;;;;;;;53.05;33.47;;;7.90;99.90;;;;;;4964649;28;20045;-75
2022/02/19 11:18:59;;;;;;;51.08;31.73;;;7.90;99.90;;;;;;4967796;28;20124;-74
2022/02/19 11:21:27;;;;;;;36.83;24.55;;;7.90;99.90;;;;;;4968646;28;20030;-75
2022/02/19 11:23:54;;;;;;;45.28;25.00;;;7.90;99.90;;;;;;4968621;28;20042;-75
2022/02/19 11:26:22;;;;;;;40.55;25.50;;;8.00;99.90;;;;;;4968495;28;20026;-76
2022/02/19 11:28:49;;;;;;;43.55;26.02;;;8.10;99.90;;;;;;4967986;28;20446;-74
2022/02/19 11:31:16;;;;;;;50.45;30.67;;;8.10;99.90;;;;;;4967650;28;20457;-74
2022/02/19 11:33:45;;;;;;;45.53;28.35;;;8.30;99.90;;;;;;4968799;28;20082;-74
2022/02/19 11:36:11;;;;;;;41.70;25.13;;;8.30;99.90;;;;;;4968600;28;20037;-75
2022/02/19 11:38:48;;;;;;;51.00;27.60;;;8.30;99.90;;;;;;4968837;28;20509;-74
2022/02/19 11:41:28;;;;;;;46.83;28.42;;;8.30;99.90;;;;;;4968858;28;20042;-74
2022/02/19 11:43:54;;;;;;;44.55;26.58;;;8.40;99.90;;;;;;4968740;28;20497;-74
2022/02/19 11:46:22;;;;;;;41.45;26.15;;;8.40;99.90;;;;;;4951261;28;20098;-74
2022/02/19 11:48:49;;;;;;;40.63;25.33;;;8.40;99.90;;;;;;4968723;28;20074;-74
2022/02/19 11:51:23;;;;;;;47.03;29.10;;;8.50;99.90;;;;;;4968449;28;20597;-75
2022/02/19 11:54:13;;;;;;;52.73;30.10;;;8.50;99.90;;;;;;4968840;28;20105;-75
2022/02/19 11:56:41;;;;;;;46.72;27.00;;;8.50;99.90;;;;;;4968402;28;20286;-74
2022/02/19 11:59:16;;;;;;;48.67;25.98;;;8.50;99.90;;;;;;4968966;28;20034;-74
2022/02/19 12:01:44;;;;;;;42.40;25.08;;;8.60;99.90;;;;;;4968703;28;20027;-75
2022/02/19 12:04:13;;;;;;;41.63;26.45;;;8.60;99.90;;;;;;4969041;28;20042;-74
2022/02/19 12:06:46;;;;;;;44.30;26.20;;;8.70;99.90;;;;;;4969104;28;20041;-74
2022/02/19 12:09:17;;;;;;;47.92;29.67;;;8.80;99.90;;;;;;4968816;28;20035;-74
2022/02/19 12:11:55;;;;;;;46.22;30.52;;;8.80;99.90;;;;;;4968981;28;20037;-74
2022/02/19 12:14:39;;;;;;;52.58;32.22;;;8.90;99.90;;;;;;4968818;28;20102;-75
2022/02/19 12:17:11;;;;;;;48.75;34.47;;;8.80;99.90;;;;;;4968559;28;20074;-75
2022/02/19 12:19:56;;;;;;;49.55;32.60;;;8.80;99.90;;;;;;4968517;28;20106;-74
2022/02/19 12:22:36;;;;;;;46.33;29.25;;;9.00;99.90;;;;;;4968721;28;20019;-75
2022/02/19 12:25:05;;;;;;;48.33;33.95;;;9.10;99.90;;;;;;4968477;28;20034;-75
2022/02/19 12:27:31;;;;;;;56.38;36.15;;;9.20;99.90;;;;;;4968460;28;20070;-74
2022/02/19 12:30:19;;;;;;;54.22;33.05;;;9.20;99.90;;;;;;4971782;28;20030;-75
2022/02/19 12:32:47;;;;;;;47.15;31.05;;;9.30;99.90;;;;;;4971871;28;20495;-75
2022/02/19 12:35:13;;;;;;;55.92;33.78;;;9.20;99.90;;;;;;4972268;28;20031;-75
2022/02/19 12:37:38;;;;;;;55.85;35.72;;;9.30;99.90;;;;;;4971797;28;20512;-75
2022/02/19 12:40:05;;;;;;;56.63;34.20;;;9.40;99.90;;;;;;4972066;28;20651;-74
2022/02/19 12:42:32;;;;;;;55.75;36.15;;;9.40;99.90;;;;;;4972081;28;20039;-75